Orbital elements of FENGYUN 1C DEB
| Launched | 9 May 1999 |
| Flight ended | – |
| Launch site | Taiyuan Space Center, PRC |
| Owner | People's Republic of China |
| NORAD ID | 30650 |
| Date fetched |
Epoch osculation |
Inc. [°] |
Ecc. | RA asc node [hr] |
Arg Peri. [°] |
Mean anom [°] |
Mean motion [rev/day] |
Abs. mag |
| Date fetched |
Epoch osculation |
Inc. [°] |
Ecc. | RA asc node [hr] |
Arg Peri. [°] |
Mean anom [°] |
Mean motion [rev/day] |
Abs. mag |
| 2026 May 03 17:57 | 2026 Apr 30 14:08:49 | 99.1904 | 0.00736 | 11.3517 | 158.7563 | 357.9992 | 14.14657 | – |
| 2026 May 02 17:57 | 2026 Apr 30 14:08:49 | 99.1904 | 0.00736 | 11.3517 | 158.7563 | 357.9992 | 14.14657 | – |
| 2026 May 01 17:56 | 2026 Apr 30 14:08:49 | 99.1904 | 0.00736 | 11.3517 | 158.7563 | 357.9992 | 14.14657 | – |
| 2026 Apr 30 17:56 | 2026 Apr 30 14:08:49 | 99.1904 | 0.00736 | 11.3517 | 158.7563 | 357.9992 | 14.14657 | – |
| 2026 Apr 29 17:57 | 2026 Apr 23 01:37:43 | 99.1910 | 0.00729 | 10.8355 | 179.3309 | 357.9992 | 14.14657 | – |
| 2026 Apr 28 17:56 | 2026 Apr 23 01:37:43 | 99.1910 | 0.00729 | 10.8355 | 179.3309 | 357.9992 | 14.14657 | – |
| 2026 Apr 27 17:58 | 2026 Apr 23 01:37:43 | 99.1910 | 0.00729 | 10.8355 | 179.3309 | 357.9992 | 14.14657 | – |
| 2026 Apr 26 17:58 | 2026 Apr 23 01:37:43 | 99.1910 | 0.00729 | 10.8355 | 179.3309 | 357.9992 | 14.14657 | – |
| 2026 Apr 25 17:58 | 2026 Apr 23 01:37:43 | 99.1910 | 0.00729 | 10.8355 | 179.3309 | 357.9992 | 14.14657 | – |
| 2026 Apr 24 17:59 | 2026 Apr 23 01:37:43 | 99.1910 | 0.00729 | 10.8355 | 179.3309 | 357.9992 | 14.14657 | – |
| 2026 Apr 23 17:57 | 2026 Apr 17 03:10:56 | 99.1923 | 0.00725 | 10.4282 | 195.7381 | 357.9992 | 14.14657 | – |
| 2026 Apr 22 17:57 | 2026 Apr 17 03:10:56 | 99.1923 | 0.00725 | 10.4282 | 195.7381 | 357.9992 | 14.14657 | – |
| 2026 Apr 21 17:57 | 2026 Apr 17 03:10:56 | 99.1923 | 0.00725 | 10.4282 | 195.7381 | 357.9992 | 14.14657 | – |
| 2026 Apr 20 17:57 | 2026 Apr 17 03:10:56 | 99.1923 | 0.00725 | 10.4282 | 195.7381 | 357.9992 | 14.14657 | – |
| 2026 Apr 19 17:58 | 2026 Apr 17 03:10:56 | 99.1923 | 0.00725 | 10.4282 | 195.7381 | 357.9992 | 14.14657 | – |
| 2026 Apr 18 17:56 | 2026 Apr 13 02:15:42 | 99.1922 | 0.00720 | 10.1511 | 206.9297 | 357.9992 | 14.14657 | – |
| 2026 Apr 16 17:57 | 2026 Apr 13 02:15:42 | 99.1922 | 0.00720 | 10.1511 | 206.9297 | 357.9992 | 14.14657 | – |
| 2026 Apr 14 17:57 | 2026 Apr 13 02:15:42 | 99.1922 | 0.00720 | 10.1511 | 206.9297 | 357.9992 | 14.14657 | – |
| 2026 Apr 13 17:57 | 2026 Apr 13 02:15:42 | 99.1922 | 0.00720 | 10.1511 | 206.9297 | 357.9992 | 14.14657 | – |
| 2026 Apr 12 17:57 | 2026 Apr 08 14:13:04 | 99.1927 | 0.00715 | 9.8421 | 219.4879 | 357.9992 | 14.14657 | – |
| 2026 Apr 11 17:57 | 2026 Apr 08 14:13:04 | 99.1927 | 0.00715 | 9.8421 | 219.4879 | 357.9992 | 14.14657 | – |
| 2026 Apr 10 17:58 | 2026 Apr 08 14:13:04 | 99.1927 | 0.00715 | 9.8421 | 219.4879 | 357.9992 | 14.14657 | – |
| 2026 Apr 09 18:01 | 2026 Apr 08 14:13:04 | 99.1927 | 0.00715 | 9.8421 | 219.4879 | 357.9992 | 14.14657 | – |
| 2026 Apr 08 17:57 | 2026 Apr 08 14:13:04 | 99.1927 | 0.00715 | 9.8421 | 219.4879 | 357.9992 | 14.14657 | – |
| 2026 Apr 07 17:57 | 2026 Apr 02 01:26:21 | 99.1928 | 0.00708 | 9.3938 | 237.8675 | 357.9992 | 14.14657 | – |
| 2026 Apr 06 17:57 | 2026 Apr 02 01:26:21 | 99.1928 | 0.00708 | 9.3938 | 237.8675 | 357.9992 | 14.14657 | – |